Time;durP1;ratioP1;P1;durP2;ratioP2;P2;SDS_P1;SDS_P2;PMS_P1;PMS_P2;Temp;Humidity;BMP_temperature;BMP_pressure;BME280_temperature;BME280_humidity;BME280_pressure;Samples;Min_cycle;Max_cycle;Signal;HPM_P1;HPM_P2
2022/01/02 00:01:49;;;;;;;72.80;56.30;;;;;;;10.56;80.92;101144.92;110671;1253;22165;-83
2022/01/02 00:04:22;;;;;;;69.20;56.60;;;;;;;10.51;80.80;101141.13;110954;1253;22272;-84
2022/01/02 00:06:54;;;;;;;78.10;59.40;;;;;;;10.45;80.68;101141.77;110935;1253;23040;-83
2022/01/02 00:09:31;;;;;;;73.70;56.00;;;;;;;10.38;80.82;101141.38;110804;1253;23031;-81
2022/01/02 00:12:13;;;;;;;74.20;56.80;;;;;;;10.29;80.78;101140.77;110792;1253;22967;-82
2022/01/02 00:14:47;;;;;;;72.40;57.30;;;;;;;10.21;80.81;101138.36;110811;1250;23706;-82
2022/01/02 00:17:21;;;;;;;65.20;54.90;;;;;;;10.14;80.85;101133.74;111031;1250;23716;-81
2022/01/02 00:19:55;;;;;;;74.10;56.90;;;;;;;10.09;81.10;101131.70;110631;1256;22030;-82
2022/01/02 00:23:04;;;;;;;72.10;59.60;;;;;;;10.05;81.18;101129.80;110305;1259;23076;-82
2022/01/02 00:25:39;;;;;;;69.60;58.10;;;;;;;10.00;81.23;101129.50;110159;1259;21980;-83
2022/01/02 00:28:12;;;;;;;75.20;59.00;;;;;;;9.96;81.37;101132.51;109709;1260;22327;-82
2022/01/02 00:30:44;;;;;;;71.50;57.50;;;;;;;9.94;81.39;101135.27;110273;1259;21968;-82
2022/01/02 00:33:15;;;;;;;86.40;63.10;;;;;;;9.93;81.55;101129.41;110430;1259;21983;-83
2022/01/02 00:35:44;;;;;;;80.00;59.10;;;;;;;9.94;81.58;101125.66;109504;1265;24369;-82
2022/01/02 00:38:21;;;;;;;70.00;55.70;;;;;;;9.95;81.76;101122.83;109033;1267;23512;-82
2022/01/02 00:40:57;;;;;;;67.60;54.50;;;;;;;9.99;81.84;101115.96;109374;1264;21985;-82
2022/01/02 00:43:47;;;;;;;66.40;54.60;;;;;;;10.02;81.83;101115.70;109472;1264;21950;-82
2022/01/02 00:46:21;;;;;;;69.20;51.70;;;;;;;10.04;81.69;101108.64;109391;1265;22072;-82
2022/01/02 00:48:56;;;;;;;62.10;50.30;;;;;;;10.03;81.55;101104.11;109282;1264;23673;-82
2022/01/02 00:51:47;;;;;;;61.00;49.40;;;;;;;9.99;81.50;101100.88;110195;1263;21971;-81
2022/01/02 00:54:18;;;;;;;67.40;50.70;;;;;;;9.95;81.58;101107.36;109941;1259;21981;-82
2022/01/02 00:56:52;;;;;;;63.30;46.00;;;;;;;9.95;81.77;101116.95;109982;1256;23720;-81
2022/01/02 00:59:34;;;;;;;62.40;51.40;;;;;;;9.96;81.92;101119.65;110491;1256;23075;-81
2022/01/02 01:02:07;;;;;;;51.50;43.20;;;;;;;9.96;81.78;101117.30;110572;1256;23577;-81
2022/01/02 01:04:43;;;;;;;55.30;43.80;;;;;;;9.96;81.67;101121.79;109941;1262;21981;-82
2022/01/02 01:07:13;;;;;;;49.50;42.30;;;;;;;9.96;81.69;101124.59;109176;1267;21995;-79
2022/01/02 01:09:43;;;;;;;48.80;40.80;;;;;;;9.98;81.82;101125.38;109366;1268;21944;-79
2022/01/02 01:12:13;;;;;;;50.70;40.80;;;;;;;10.00;81.76;101123.94;108987;1267;23681;-79
2022/01/02 01:14:43;;;;;;;55.80;46.50;;;;;;;10.03;81.80;101115.79;109447;1263;22439;-80
2022/01/02 01:17:14;;;;;;;49.50;40.80;;;;;;;10.05;81.76;101105.94;109324;1265;23829;-81
2022/01/02 01:19:45;;;;;;;49.50;40.60;;;;;;;10.05;81.79;101105.22;109006;1268;23632;-82
2022/01/02 01:22:15;;;;;;;48.90;40.80;;;;;;;10.06;81.74;101098.30;109197;1264;21992;-82
2022/01/02 01:24:44;;;;;;;49.50;36.00;;;;;;;10.06;81.74;101089.80;109418;1262;22445;-82
2022/01/02 01:27:14;;;;;;;51.40;37.70;;;;;;;10.05;81.66;101080.61;109262;1266;22909;-81
2022/01/02 01:29:43;;;;;;;47.70;36.50;;;;;;;10.01;81.68;101073.42;109346;1267;23694;-81
2022/01/02 01:32:15;;;;;;;44.40;35.10;;;;;;;9.95;81.41;101065.56;109381;1268;21989;-82
2022/01/02 01:34:46;;;;;;;45.90;38.10;;;;;;;9.87;81.47;101056.56;109340;1267;21992;-82
2022/01/02 01:37:16;;;;;;;44.00;34.10;;;;;;;9.80;81.49;101048.84;109316;1262;23600;-82
2022/01/02 01:39:46;;;;;;;48.30;36.20;;;;;;;9.74;81.69;101033.44;110014;1264;23665;-82
2022/01/02 01:42:26;;;;;;;45.40;33.50;;;;;;;9.70;81.74;101026.86;110113;1259;21986;-82
2022/01/02 01:45:28;;;;;;;41.60;34.30;;;;;;;9.67;81.70;101027.34;110069;1259;127557;-82
2022/01/02 01:48:05;;;;;;;40.80;35.30;;;;;;;9.57;81.75;101013.31;110414;1259;21970;-82
2022/01/02 01:50:41;;;;;;;43.80;36.60;;;;;;;9.48;81.76;101006.46;110306;1259;21982;-83
2022/01/02 01:53:19;;;;;;;43.20;38.00;;;;;;;9.40;82.03;101004.21;110077;1258;22407;-82
2022/01/02 01:55:49;;;;;;;47.30;37.80;;;;;;;9.34;82.19;101002.98;109612;1264;21979;-81
2022/01/02 01:58:18;;;;;;;41.70;35.00;;;;;;;9.30;82.24;101001.47;109363;1264;21983;-81
2022/01/02 02:00:49;;;;;;;38.30;33.80;;;;;;;9.26;82.35;100998.84;108910;1270;23162;-82
2022/01/02 02:03:30;;;;;;;41.20;36.20;;;;;;;9.24;82.40;100998.02;109297;1265;22953;-81
2022/01/02 02:05:59;;;;;;;44.60;36.70;;;;;;;9.22;82.59;101004.55;109466;1264;22746;-81
2022/01/02 02:08:29;;;;;;;40.40;33.90;;;;;;;9.22;82.64;101008.23;109681;1264;22062;-81
2022/01/02 02:10:59;;;;;;;34.40;30.40;;;;;;;9.25;82.71;100994.08;109656;1263;21996;-84
2022/01/02 02:13:30;;;;;;;36.40;30.10;;;;;;;9.30;82.75;100990.63;109266;1262;23007;-83
2022/01/02 02:16:02;;;;;;;;;;;;;;;9.34;82.78;100994.80;109824;1261;23669;-82
2022/01/02 02:18:32;;;;;;;28.80;25.70;;;;;;;9.30;82.91;100999.52;110122;1256;23693;-83
2022/01/02 02:21:03;;;;;;;25.70;21.60;;;;;;;9.32;83.04;100998.27;110610;1256;24440;-82
2022/01/02 02:23:36;;;;;;;28.10;22.80;;;;;;;9.36;82.88;100998.09;110632;1256;23595;-83
2022/01/02 02:26:05;;;;;;;26.50;21.30;;;;;;;9.38;82.76;100993.17;110330;1256;22261;-83
2022/01/02 02:28:36;;;;;;;28.40;19.90;;;;;;;9.38;82.83;100987.52;110572;1256;22022;-83
2022/01/02 02:31:06;;;;;;;23.80;20.80;;;;;;;9.38;82.93;100987.50;109942;1259;22021;-83
2022/01/02 02:33:35;;;;;;;24.70;18.70;;;;;;;9.40;82.88;100982.23;110342;1257;21968;-83
2022/01/02 02:36:05;;;;;;;22.90;18.90;;;;;;;9.42;82.82;100972.96;110024;1260;21977;-83
2022/01/02 02:38:38;;;;;;;24.30;18.50;;;;;;;9.42;82.88;100973.98;109262;1267;23660;-81
2022/01/02 02:41:07;;;;;;;24.40;18.90;;;;;;;9.44;82.89;100980.82;108942;1267;23629;-84
2022/01/02 02:43:46;;;;;;;20.20;17.60;;;;;;;9.48;83.01;100985.20;108827;1270;23733;-82
2022/01/02 02:49:23;;;;;;;19.00;16.80;;;;;;;9.56;83.08;100985.33;108689;1273;23750;-81
2022/01/02 02:54:30;;;;;;;18.90;15.90;;;;;;;9.64;83.03;100978.55;108833;1270;22011;-80
2022/01/02 02:57:01;;;;;;;18.90;15.20;;;;;;;9.69;83.00;100978.08;108920;1267;21985;-80
2022/01/02 02:59:37;;;;;;;18.70;15.40;;;;;;;9.74;82.85;100984.16;109138;1267;23036;-80
2022/01/02 03:02:07;;;;;;;20.60;16.60;;;;;;;9.76;82.89;100988.70;109421;1262;22029;-80
2022/01/02 03:04:46;;;;;;;20.50;16.30;;;;;;;9.79;82.79;100984.85;109444;1262;22093;-81
2022/01/02 03:07:19;;;;;;;;;;;;;;;9.83;82.74;100978.03;109687;1262;21963;-82
2022/01/02 03:09:51;;;;;;;19.80;16.00;;;;;;;9.78;82.81;100972.66;110085;1262;21981;-82
2022/01/02 03:12:26;;;;;;;20.50;17.20;;;;;;;9.79;82.87;100970.24;109259;1267;21997;-82
2022/01/02 03:14:56;;;;;;;23.70;18.40;;;;;;;9.84;82.90;100966.66;109202;1267;22014;-82
2022/01/02 03:17:26;;;;;;;28.30;20.10;;;;;;;9.87;82.65;100957.90;109220;1264;23785;-81
2022/01/02 03:19:56;;;;;;;25.50;19.60;;;;;;;9.90;82.47;100952.31;109276;1267;22059;-82
2022/01/02 03:22:29;;;;;;;22.30;18.10;;;;;;;9.91;82.34;100954.89;109527;1257;22042;-82
2022/01/02 03:24:59;;;;;;;20.60;16.40;;;;;;;9.91;82.23;100955.05;110143;1259;21976;-81
2022/01/02 03:27:32;;;;;;;20.20;16.70;;;;;;;9.92;82.06;100950.89;109552;1263;21978;-82
2022/01/02 03:30:03;;;;;;;25.70;18.60;;;;;;;9.93;81.95;100945.02;109035;1265;21999;-82
2022/01/02 03:32:35;;;;;;;23.90;19.30;;;;;;;9.91;81.74;100932.84;109223;1265;21975;-82
2022/01/02 03:35:08;;;;;;;21.60;17.80;;;;;;;9.90;81.86;100926.62;109313;1267;22978;-83
2022/01/02 03:37:41;;;;;;;23.70;19.90;;;;;;;9.88;81.71;100914.66;108884;1268;22033;-83
2022/01/02 03:40:12;;;;;;;23.30;18.60;;;;;;;9.82;81.52;100908.42;108898;1269;21995;-80
2022/01/02 03:42:41;;;;;;;24.80;19.40;;;;;;;9.72;81.40;100901.65;108793;1273;22008;-80
2022/01/02 03:45:11;;;;;;;23.80;18.40;;;;;;;9.62;81.41;100899.64;108990;1264;23608;-81
2022/01/02 03:47:41;;;;;;;21.00;18.20;;;;;;;9.55;81.64;100901.15;109098;1267;23042;-82
2022/01/02 03:50:12;;;;;;;22.40;17.60;;;;;;;9.53;81.68;100902.73;109268;1266;23610;-81
2022/01/02 03:52:43;;;;;;;22.60;20.00;;;;;;;9.52;81.68;100891.48;109295;1267;22945;-81
2022/01/02 03:55:14;;;;;;;27.40;20.90;;;;;;;9.49;81.58;100876.67;109227;1260;22151;-81
2022/01/02 03:57:45;;;;;;;;;;;;;;;9.44;81.54;100863.10;110203;1259;22185;-81
2022/01/02 04:00:18;;;;;;;24.90;20.70;;;;;;;9.31;81.68;100857.96;110104;1258;21964;-82
2022/01/02 04:02:48;;;;;;;24.80;20.20;;;;;;;9.25;81.69;100852.52;110308;1259;24135;-82
2022/01/02 04:05:18;;;;;;;22.40;19.40;;;;;;;9.24;81.90;100842.64;110070;1259;23015;-81
2022/01/02 04:07:49;;;;;;;27.60;19.10;;;;;;;9.21;81.78;100835.90;110178;1259;21939;-81
2022/01/02 04:10:19;;;;;;;23.10;20.50;;;;;;;9.18;81.73;100834.23;110398;1259;22067;-81
2022/01/02 04:12:49;;;;;;;25.10;22.40;;;;;;;9.17;81.90;100837.28;110365;1253;21958;-81
2022/01/02 04:15:19;;;;;;;30.70;27.50;;;;;;;9.15;81.76;100835.98;110165;1259;24297;-82
2022/01/02 04:17:49;;;;;;;29.30;26.20;;;;;;;9.12;81.78;100829.70;110087;1256;21982;-82
2022/01/02 04:20:21;;;;;;;34.00;30.50;;;;;;;9.10;81.82;100821.85;110426;1256;23675;-82
2022/01/02 04:22:51;;;;;;;39.10;35.00;;;;;;;9.09;81.87;100808.54;110254;1257;23708;-82
2022/01/02 04:25:21;;;;;;;42.40;38.10;;;;;;;9.07;81.77;100800.16;110339;1257;21971;-82
2022/01/02 04:27:50;;;;;;;40.10;35.60;;;;;;;9.04;81.86;100794.27;110063;1262;21980;-83
2022/01/02 04:30:20;;;;;;;37.40;33.50;;;;;;;9.01;81.81;100789.00;109004;1267;23057;-80
2022/01/02 04:32:51;;;;;;;32.20;29.00;;;;;;;8.96;81.83;100791.21;109015;1265;24420;-78
2022/01/02 04:35:21;;;;;;;30.40;27.30;;;;;;;8.90;81.83;100789.11;109795;1264;22447;-79
2022/01/02 04:37:52;;;;;;;29.30;26.30;;;;;;;8.87;81.97;100787.85;109285;1264;21977;-79
2022/01/02 04:40:22;;;;;;;27.50;24.20;;;;;;;8.83;82.09;100782.54;108850;1270;22094;-76
2022/01/02 04:42:52;;;;;;;24.60;20.60;;;;;;;8.80;82.16;100775.11;108850;1270;22116;-81
2022/01/02 04:45:22;;;;;;;26.40;23.30;;;;;;;8.77;82.24;100768.23;109004;1267;22725;-80
2022/01/02 04:47:56;;;;;;;28.40;22.10;;;;;;;8.74;82.31;100771.86;109442;1259;21982;-81
2022/01/02 04:50:26;;;;;;;29.00;22.00;;;;;;;8.71;82.26;100772.52;109846;1259;21967;-80
2022/01/02 04:52:56;;;;;;;29.20;23.70;;;;;;;8.68;82.22;100771.22;110187;1259;23810;-81
2022/01/02 04:55:34;;;;;;;25.50;22.80;;;;;;;8.65;82.26;100771.50;110221;1259;23063;-82
2022/01/02 04:58:05;;;;;;;24.60;21.60;;;;;;;8.61;82.32;100770.60;110355;1253;21956;-83
2022/01/02 05:00:36;;;;;;;29.50;23.30;;;;;;;8.58;82.21;100763.21;110839;1253;23652;-83
2022/01/02 05:03:06;;;;;;;26.90;23.00;;;;;;;8.56;82.40;100751.64;110300;1256;21979;-82
2022/01/02 05:05:36;;;;;;;30.80;23.70;;;;;;;8.54;82.40;100744.85;110474;1256;22744;-82
2022/01/02 05:08:07;;;;;;;24.80;21.70;;;;;;;8.50;82.34;100746.39;109679;1262;23827;-82
2022/01/02 05:10:36;;;;;;;25.60;22.70;;;;;;;8.47;82.49;100742.46;109443;1262;22425;-81
2022/01/02 05:13:05;;;;;;;26.90;22.50;;;;;;;8.44;82.32;100735.15;109610;1264;21996;-80
2022/01/02 05:15:35;;;;;;;27.80;23.60;;;;;;;8.41;82.40;100725.83;109770;1263;21997;-80
2022/01/02 05:18:04;;;;;;;25.70;20.80;;;;;;;8.36;82.41;100722.05;109846;1262;21972;-80
2022/01/02 05:20:33;;;;;;;26.50;20.80;;;;;;;8.32;82.43;100720.14;109747;1260;22048;-79
2022/01/02 05:23:03;;;;;;;28.90;22.90;;;;;;;8.30;82.44;100722.80;110419;1256;23940;-79
2022/01/02 05:25:32;;;;;;;27.20;22.40;;;;;;;8.27;82.31;100722.54;110201;1253;22068;-78
2022/01/02 05:28:03;;;;;;;25.30;21.30;;;;;;;8.26;82.46;100716.71;110853;1251;23023;-80
2022/01/02 05:30:36;;;;;;;24.50;21.50;;;;;;;8.24;82.60;100711.73;110853;1253;22322;-80
2022/01/02 05:33:07;;;;;;;25.60;22.80;;;;;;;8.22;82.55;100702.09;111042;1250;21985;-78
2022/01/02 05:35:36;;;;;;;27.90;23.60;;;;;;;8.19;82.49;100694.32;110919;1253;21969;-77
2022/01/02 05:38:07;;;;;;;39.00;27.70;;;;;;;8.18;82.63;100691.99;110788;1250;21956;-77
2022/01/02 05:40:37;;;;;;;33.10;29.80;;;;;;;8.15;82.55;100684.89;110878;1251;22185;-78
2022/01/02 05:43:07;;;;;;;38.60;34.60;;;;;;;8.11;82.54;100676.36;110971;1251;21956;-79
2022/01/02 05:45:37;;;;;;;38.00;34.20;;;;;;;8.07;82.47;100671.95;111372;1250;22976;-85
2022/01/02 05:48:08;;;;;;;41.80;37.70;;;;;;;8.06;82.59;100669.83;110603;1256;22034;-79
2022/01/02 05:50:37;;;;;;;43.90;39.20;;;;;;;8.05;82.58;100664.96;110617;1256;22068;-79
2022/01/02 05:53:07;;;;;;;44.20;39.70;;;;;;;8.03;82.46;100661.43;110845;1256;22444;-79
2022/01/02 05:55:37;;;;;;;48.90;44.20;;;;;;;8.00;82.47;100655.44;110360;1256;21981;-79
2022/01/02 05:58:07;;;;;;;50.70;45.70;;;;;;;7.99;82.70;100654.45;110366;1256;22031;-78
2022/01/02 06:00:55;;;;;;;49.70;44.90;;;;;;;7.99;82.74;100657.57;110260;1256;21932;-78
2022/01/02 06:03:25;;;;;;;52.00;47.10;;;;;;;8.00;82.70;100656.83;110625;1256;23664;-79
2022/01/02 06:05:55;;;;;;;51.60;46.50;;;;;;;7.99;82.53;100653.92;110578;1250;22052;-79
2022/01/02 06:08:27;;;;;;;46.00;41.60;;;;;;;7.96;82.53;100646.14;111034;1251;21957;-79
2022/01/02 06:10:56;;;;;;;47.10;42.40;;;;;;;7.93;82.48;100632.26;111029;1250;21974;-79
2022/01/02 06:13:26;;;;;;;42.80;38.60;;;;;;;7.91;82.64;100632.57;110631;1254;21950;-79
2022/01/02 06:15:55;;;;;;;38.90;35.00;;;;;;;7.92;82.71;100623.27;110525;1254;22756;-79
2022/01/02 06:18:25;;;;;;;38.60;34.70;;;;;;;7.90;82.57;100615.29;110961;1250;24398;-80
2022/01/02 06:20:54;;;;;;;38.80;34.80;;;;;;;7.89;82.57;100606.13;111032;1253;21975;-79
2022/01/02 06:23:24;;;;;;;39.10;34.90;;;;;;;7.88;82.63;100603.27;111099;1251;21976;-79
2022/01/02 06:25:54;;;;;;;40.70;33.40;;;;;;;7.88;82.69;100603.80;110405;1257;21976;-79
2022/01/02 06:28:27;;;;;;;38.90;34.90;;;;;;;7.87;82.64;100602.65;110493;1256;23069;-78
2022/01/02 06:30:57;;;;;;;45.80;41.30;;;;;;;7.85;82.59;100597.20;110420;1257;23075;-79
2022/01/02 06:33:26;;;;;;;45.00;40.40;;;;;;;7.84;82.67;100591.17;110425;1257;22895;-79
2022/01/02 06:35:56;;;;;;;46.60;42.50;;;;;;;7.82;82.58;100594.30;109685;1262;22003;-79
2022/01/02 06:38:28;;;;;;;50.60;45.90;;;;;;;7.79;82.42;100589.03;109578;1265;22705;-78
2022/01/02 06:40:59;;;;;;;51.90;47.00;;;;;;;7.77;82.55;100587.39;109349;1265;22003;-81
2022/01/02 06:43:33;;;;;;;54.40;49.50;;;;;;;7.74;82.50;100590.98;108873;1264;21982;-79
2022/01/02 06:46:07;;;;;;;55.30;50.10;;;;;;;7.73;82.52;100592.77;109395;1264;22002;-78
2022/01/02 06:48:37;;;;;;;56.60;51.20;;;;;;;7.74;82.66;100598.59;109752;1264;21979;-79
2022/01/02 06:51:06;;;;;;;50.40;45.30;;;;;;;7.77;82.74;100606.73;109598;1265;23128;-79
2022/01/02 06:53:36;;;;;;;39.50;35.40;;;;;;;7.80;82.62;100605.42;109303;1265;23575;-79
2022/01/02 06:56:06;;;;;;;29.30;26.30;;;;;;;7.81;82.54;100594.39;109925;1262;23601;-79
2022/01/02 06:58:38;;;;;;;35.80;29.40;;;;;;;7.77;82.22;100577.98;109572;1264;22006;-78
2022/01/02 07:01:08;;;;;;;36.60;32.20;;;;;;;7.70;82.27;100572.84;109969;1256;22389;-74
2022/01/02 07:03:38;;;;;;;32.00;27.20;;;;;;;7.68;82.39;100573.40;110417;1256;21972;-75
2022/01/02 07:06:07;;;;;;;30.70;27.40;;;;;;;7.67;82.51;100567.88;109908;1262;23602;-75
2022/01/02 07:08:37;;;;;;;31.70;28.20;;;;;;;7.65;82.57;100564.70;109743;1262;22395;-74
2022/01/02 07:11:11;;;;;;;27.70;23.40;;;;;;;7.63;82.57;100560.16;109898;1258;23105;-81
2022/01/02 07:13:41;;;;;;;26.30;23.20;;;;;;;7.60;82.56;100563.30;109565;1264;22014;-83
2022/01/02 07:16:10;;;;;;;24.80;21.20;;;;;;;7.59;82.65;100575.48;109121;1267;22017;-81
2022/01/02 07:18:39;;;;;;;32.10;25.70;;;;;;;7.60;82.54;100568.34;109146;1267;21982;-80
2022/01/02 07:21:09;;;;;;;44.10;31.30;;;;;;;7.63;82.65;100559.98;109140;1267;23048;-81
2022/01/02 07:23:41;;;;;;;41.40;30.20;;;;;;;7.67;82.71;100554.95;109238;1265;22308;-81
2022/01/02 07:26:11;;;;;;;40.50;29.90;;;;;;;7.68;82.58;100559.52;109460;1265;21985;-81
2022/01/02 07:28:40;;;;;;;34.20;30.40;;;;;;;7.70;82.55;100557.62;109478;1263;21987;-81
2022/01/02 07:31:10;;;;;;;30.30;25.50;;;;;;;7.70;82.43;100556.17;109661;1256;21971;-81
2022/01/02 07:34:46;;;;;;;;;;;;;;;;;;;;;
2022/01/02 07:37:58;;;;;;;57.80;38.40;;;;;;;7.62;82.20;100531.52;109918;1264;22433;-82
2022/01/02 07:41:40;;;;;;;33.90;27.50;;;;;;;7.60;82.32;100526.45;109099;1270;22789;-81
2022/01/02 07:45:34;;;;;;;;;;;;;;;;;;;;;
2022/01/02 07:48:58;;;;;;;;;;;;;;;;;;;;;
2022/01/02 07:51:45;;;;;;;41.80;35.50;;;;;;;7.68;82.44;100518.68;108727;1273;22001;-81
2022/01/02 07:58:35;;;;;;;;;;;;;;;;;;;;;
2022/01/02 08:01:43;;;;;;;36.00;31.80;;;;;;;7.87;82.98;100531.97;108696;1273;21988;-84
2022/01/02 08:04:25;;;;;;;;;;;;;;;;;;;;;
2022/01/02 08:07:26;;;;;;;58.00;47.70;;;;;;;8.00;82.09;100525.42;108823;1273;24276;-83
2022/01/02 08:10:14;;;;;;;45.70;40.70;;;;;;;8.02;82.13;100517.24;109217;1268;21976;-82
2022/01/02 08:12:42;;;;;;;50.20;42.40;;;;;;;8.06;82.10;100523.28;109454;1268;21984;-80
2022/01/02 08:15:09;;;;;;;46.00;40.60;;;;;;;8.15;82.11;100521.24;109377;1267;22381;-83
2022/01/02 08:17:47;;;;;;;53.20;44.60;;;;;;;8.24;82.26;100515.92;109547;1263;22033;-84
2022/01/02 08:20:19;;;;;;;38.30;33.20;;;;;;;8.35;82.05;100513.49;110701;1251;23705;-83
2022/01/02 08:22:52;;;;;;;36.00;32.30;;;;;;;8.44;81.77;100509.43;110789;1253;21987;-83
2022/01/02 08:25:26;;;;;;;32.50;28.90;;;;;;;8.52;81.72;100502.73;110788;1253;22741;-82
2022/01/02 08:27:59;;;;;;;31.30;23.90;;;;;;;8.59;81.40;100504.67;110862;1251;23018;-85
2022/01/02 08:30:41;;;;;;;28.70;24.20;;;;;;;8.65;81.26;100502.53;110434;1257;21993;-80
2022/01/02 08:33:15;;;;;;;38.30;26.30;;;;;;;8.69;81.03;100495.40;110415;1256;21952;-82
2022/01/02 08:35:58;;;;;;;34.40;25.30;;;;;;;8.77;80.80;100486.08;109765;1262;22005;-81
2022/01/02 08:38:57;;;;;;;32.90;26.20;;;;;;;8.84;80.62;100482.19;109986;1262;21988;-81
2022/01/02 08:41:27;;;;;;;34.80;29.20;;;;;;;8.90;80.64;100481.73;109827;1262;22594;-81
2022/01/02 08:44:02;;;;;;;49.70;37.50;;;;;;;8.99;80.47;100478.38;110278;1264;22389;-81
2022/01/02 08:46:34;;;;;;;43.50;38.40;;;;;;;9.08;80.37;100476.96;109973;1262;22355;-81
2022/01/02 08:49:09;;;;;;;37.20;33.30;;;;;;;9.19;80.21;100480.41;109874;1261;21981;-83
2022/01/02 08:51:42;;;;;;;33.10;29.50;;;;;;;9.27;79.73;100474.36;109770;1262;24524;-81
2022/01/02 08:54:14;;;;;;;44.10;38.10;;;;;;;9.31;79.37;100470.61;110012;1259;22091;-81
2022/01/02 08:57:50;;;;;;;;;;;;;;;;;;;;;
2022/01/02 09:02:14;;;;;;;;;;;;;;;;;;;;;
2022/01/02 09:05:53;;;;;;;;;;;;;;;;;;;;;
2022/01/02 09:13:14;;;;;;;;;;;;;;;;;;;;;
2022/01/02 09:16:33;;;;;;;35.10;25.70;;;;;;;10.21;78.21;100443.40;108736;1279;22554;-81
2022/01/02 09:19:48;;;;;;;39.70;25.10;;;;;;;10.26;77.09;100432.17;108606;1279;21974;-80
2022/01/02 09:22:47;;;;;;;;;;;;;;;;;;;;;
2022/01/02 09:25:38;;;;;;;;;;;;;;;;;;;;;
2022/01/02 09:29:38;;;;;;;;;;;;;;;;;;;;;
2022/01/02 09:32:41;;;;;;;;;;;;;;;;;;;;;
2022/01/02 09:35:28;;;;;;;28.00;21.80;;;;;;;10.49;75.52;100407.54;108929;1273;22357;-81
2022/01/02 09:38:57;;;;;;;;;;;;;;;;;;;;;
2022/01/02 09:45:33;;;;;;;;;;;;;;;10.78;74.89;100400.20;108566;1280;24310;-80
2022/01/02 09:48:37;;;;;;;;;;;;;;;;;;;;;
2022/01/02 09:51:45;;;;;;;;;;;;;;;;;;;;;
2022/01/02 09:54:40;;;;;;;21.60;18.40;;;;;;;10.93;73.63;100403.05;108386;1279;21999;-80
2022/01/02 10:03:22;;;;;;;18.30;15.60;;;;;;;10.90;72.99;100394.11;104822;1270;5741643;-83
2022/01/02 10:07:00;;;;;;;17.80;14.00;;;;;;;10.86;72.46;100396.63;109026;1273;22009;-83
2022/01/02 10:11:37;;;;;;;20.70;14.70;;;;;;;10.97;72.54;100377.99;108306;1288;544400;-85
2022/01/02 10:15:42;;;;;;;;;;;;;;;;;;;;;
2022/01/02 10:19:42;;;;;;;;;;;;;;;;;;;;;
2022/01/02 10:24:59;;;;;;;29.10;21.70;;;;;;;11.07;71.38;100366.49;97376;1292;7911074;-84
2022/01/02 10:29:08;;;;;;;;;;;;;;;;;;;;;
2022/01/02 10:33:48;;;;;;;;;;;;;;;;;;;;;
2022/01/02 10:38:06;;;;;;;;;;;;;;;;;;;;;
2022/01/02 10:42:27;;;;;;;;;;;;;;;;;;;;;
2022/01/02 10:46:03;;;;;;;25.00;20.50;;;;;;;11.05;70.54;100333.20;106525;1301;22166;-82
2022/01/02 10:49:21;;;;;;;;;;;;;;;;;;;;;
2022/01/02 10:53:21;;;;;;;19.10;15.20;;;;;;;11.06;70.71;100330.33;106401;1304;22055;-83
2022/01/02 10:56:19;;;;;;;;;;;;;;;;;;;;;
2022/01/02 10:59:33;;;;;;;;;;;;;;;;;;;;;
2022/01/02 11:07:23;;;;;;;16.80;12.60;;;;;;;11.32;69.66;100296.33;106996;1298;84930;-82
2022/01/02 11:09:59;;;;;;;17.70;13.80;;;;;;;11.33;69.46;100293.94;107607;1292;22873;-84
2022/01/02 11:12:47;;;;;;;18.80;14.50;;;;;;;11.38;69.46;100290.38;108158;1289;22037;-82
2022/01/02 11:15:25;;;;;;;15.90;12.20;;;;;;;11.43;69.13;100288.71;108020;1289;22023;-82
2022/01/02 11:17:58;;;;;;;15.70;12.10;;;;;;;11.50;69.12;100280.46;108760;1274;24322;-82
2022/01/02 11:20:33;;;;;;;14.40;11.20;;;;;;;11.56;68.57;100277.23;108627;1279;22280;-83
2022/01/02 11:23:29;;;;;;;16.20;11.50;;;;;;;11.56;68.37;100274.34;109245;1273;23772;-82
2022/01/02 11:26:48;;;;;;;16.90;11.70;;;;;;;11.56;68.07;100262.05;109031;1276;22527;-82
2022/01/02 11:29:33;;;;;;;;;;;;;;;11.54;68.06;100261.33;109146;1273;24432;-82
2022/01/02 11:32:27;;;;;;;14.50;12.50;;;;;;;11.50;68.28;100260.06;109262;1273;22386;-83
2022/01/02 11:35:31;;;;;;;15.80;10.80;;;;;;;11.47;67.86;100243.83;109123;1274;22024;-82
2022/01/02 11:38:04;;;;;;;12.30;8.90;;;;;;;11.43;67.77;100241.70;108831;1273;22078;-82
2022/01/02 11:41:01;;;;;;;18.00;10.80;;;;;;;11.42;67.63;100236.88;108975;1273;22013;-82
2022/01/02 11:43:53;;;;;;;13.10;11.70;;;;;;;11.41;67.52;100235.57;109059;1273;22055;-81
2022/01/02 11:46:36;;;;;;;15.80;11.00;;;;;;;11.41;67.39;100236.05;109227;1273;22120;-82
2022/01/02 11:49:18;;;;;;;15.00;11.80;;;;;;;11.41;67.44;100232.27;109284;1273;23674;-83
2022/01/02 11:51:50;;;;;;;19.30;14.80;;;;;;;11.40;67.29;100238.71;109123;1279;23102;-84
2022/01/02 11:54:46;;;;;;;23.80;21.30;;;;;;;11.38;67.35;100242.59;108979;1279;22032;-82
2022/01/02 11:57:46;;;;;;;22.90;17.30;;;;;;;11.36;67.17;100239.10;108847;1276;22004;-82
2022/01/02 12:00:49;;;;;;;17.40;13.50;;;;;;;11.28;67.10;100233.54;108776;1283;22002;-83
2022/01/02 12:03:52;;;;;;;20.30;14.30;;;;;;;11.22;67.15;100227.98;108877;1283;22031;-82
2022/01/02 12:06:33;;;;;;;17.80;14.50;;;;;;;11.19;67.43;100219.91;109038;1279;23892;-84
2022/01/02 12:09:36;;;;;;;22.60;18.20;;;;;;;11.21;67.51;100218.89;108918;1275;22022;-84
2022/01/02 12:12:07;;;;;;;22.40;17.80;;;;;;;11.25;67.70;100224.83;109328;1271;22042;-83
2022/01/02 12:15:00;;;;;;;19.40;15.80;;;;;;;11.25;67.55;100219.50;109366;1270;24064;-83
2022/01/02 12:18:13;;;;;;;22.20;18.00;;;;;;;11.22;67.47;100212.45;109517;1270;22453;-84
2022/01/02 12:21:00;;;;;;;20.80;17.40;;;;;;;11.21;67.66;100215.10;109403;1271;22059;-85
2022/01/02 12:23:56;;;;;;;21.50;16.10;;;;;;;11.18;67.63;100219.16;109503;1270;22033;-83
2022/01/02 12:26:44;;;;;;;19.70;15.60;;;;;;;11.14;67.69;100224.38;109232;1276;22458;-83
2022/01/02 12:29:20;;;;;;;21.50;15.30;;;;;;;11.13;67.89;100223.25;108738;1280;22005;-85
2022/01/02 12:31:50;;;;;;;21.50;16.80;;;;;;;11.14;67.90;100220.02;108536;1279;22052;-84
2022/01/02 12:34:30;;;;;;;24.00;17.50;;;;;;;11.13;67.89;100215.61;108551;1280;22038;-84
2022/01/02 12:37:09;;;;;;;37.50;24.10;;;;;;;11.13;67.91;100213.73;108726;1276;21992;-84
2022/01/02 12:39:45;;;;;;;29.50;24.70;;;;;;;11.14;67.99;100205.42;108849;1282;22008;-83
2022/01/02 12:42:29;;;;;;;27.80;22.00;;;;;;;11.17;68.09;100195.43;108818;1282;23713;-82
2022/01/02 12:45:06;;;;;;;30.00;23.30;;;;;;;11.23;68.25;100194.77;108699;1282;23651;-85
2022/01/02 12:47:57;;;;;;;32.90;24.90;;;;;;;11.26;68.13;100194.19;108951;1277;22004;-85
2022/01/02 12:50:33;;;;;;;40.20;27.40;;;;;;;11.27;68.07;100190.73;109260;1279;22728;-87
2022/01/02 12:54:15;;;;;;;28.40;22.30;;;;;;;11.29;67.96;100188.73;109314;1276;22108;-86
2022/01/02 12:56:52;;;;;;;32.50;22.70;;;;;;;11.29;67.92;100189.98;109119;1274;22482;-86
2022/01/02 12:59:36;;;;;;;26.60;22.00;;;;;;;11.30;67.99;100189.40;108993;1279;23153;-85
2022/01/02 13:02:12;;;;;;;41.10;33.40;;;;;;;11.30;67.97;100180.66;109119;1277;23087;-85
2022/01/02 13:04:55;;;;;;;44.50;37.00;;;;;;;11.34;68.08;100172.20;109102;1273;22036;-84
2022/01/02 13:07:40;;;;;;;32.40;28.60;;;;;;;11.35;67.94;100167.34;109049;1277;22196;-84
2022/01/02 13:10:15;;;;;;;31.40;24.90;;;;;;;11.36;67.76;100161.77;109165;1273;23902;-84
2022/01/02 13:12:54;;;;;;;27.90;22.40;;;;;;;11.37;67.78;100149.31;109311;1273;23690;-85
2022/01/02 13:15:24;;;;;;;22.80;19.10;;;;;;;11.38;67.74;100153.80;108974;1279;22000;-85
2022/01/02 13:17:58;;;;;;;22.00;16.50;;;;;;;11.39;67.71;100146.21;108993;1276;22004;-84
2022/01/02 13:20:30;;;;;;;24.20;20.80;;;;;;;11.39;67.61;100140.96;109001;1276;22042;-83
2022/01/02 13:23:03;;;;;;;22.40;18.40;;;;;;;11.37;67.78;100136.86;108862;1279;22033;-82
2022/01/02 13:25:45;;;;;;;24.80;18.90;;;;;;;11.36;67.77;100136.03;108508;1280;22273;-81